sensor_id;sensor_type;location;lat;lon;timestamp;pressure;altitude;pressure_sealevel;temperature;humidity
80149;BME280;69473;42.426;26.644;2024-03-02T00:00:23;98680.56;;;7.18;100.00
80149;BME280;69473;42.426;26.644;2024-03-02T00:02:51;98677.16;;;7.20;100.00
80149;BME280;69473;42.426;26.644;2024-03-02T00:05:21;98684.06;;;7.27;100.00
80149;BME280;69473;42.426;26.644;2024-03-02T00:07:58;98670.25;;;7.15;100.00
80149;BME280;69473;42.426;26.644;2024-03-02T00:10:37;98685.78;;;7.31;100.00
80149;BME280;69473;42.426;26.644;2024-03-02T00:13:06;98678.88;;;7.21;100.00
80149;BME280;69473;42.426;26.644;2024-03-02T00:18:04;98669.41;;;7.16;100.00
80149;BME280;69473;42.426;26.644;2024-03-02T00:20:30;98675.44;;;7.22;100.00
80149;BME280;69473;42.426;26.644;2024-03-02T00:23:10;98666.84;;;7.23;100.00
80149;BME280;69473;42.426;26.644;2024-03-02T00:25:44;98656.56;;;7.26;100.00
80149;BME280;69473;42.426;26.644;2024-03-02T00:28:23;98661.69;;;7.23;100.00
80149;BME280;69473;42.426;26.644;2024-03-02T00:31:07;98665.13;;;7.18;100.00
80149;BME280;69473;42.426;26.644;2024-03-02T00:33:37;98643.66;;;7.23;100.00
80149;BME280;69473;42.426;26.644;2024-03-02T00:36:06;98646.25;;;7.20;100.00
80149;BME280;69473;42.426;26.644;2024-03-02T00:38:33;98632.53;;;7.27;100.00
80149;BME280;69473;42.426;26.644;2024-03-02T00:41:04;98618.66;;;7.03;100.00
80149;BME280;69473;42.426;26.644;2024-03-02T00:43:43;98615.31;;;7.16;100.00
80149;BME280;69473;42.426;26.644;2024-03-02T00:46:20;98614.47;;;7.28;100.00
80149;BME280;69473;42.426;26.644;2024-03-02T00:49:00;98617.06;;;7.27;100.00
80149;BME280;69473;42.426;26.644;2024-03-02T00:51:30;98615.34;;;7.29;100.00
80149;BME280;69473;42.426;26.644;2024-03-02T00:54:03;98614.47;;;7.27;100.00
80149;BME280;69473;42.426;26.644;2024-03-02T00:56:30;98615.31;;;7.23;100.00
80149;BME280;69473;42.426;26.644;2024-03-02T00:58:56;98627.38;;;7.27;100.00
80149;BME280;69473;42.426;26.644;2024-03-02T01:01:22;98615.31;;;7.26;100.00
80149;BME280;69473;42.426;26.644;2024-03-02T01:03:49;98624.78;;;7.31;100.00
80149;BME280;69473;42.426;26.644;2024-03-02T01:06:18;98617.97;;;7.36;100.00
80149;BME280;69473;42.426;26.644;2024-03-02T01:08:44;98605.03;;;7.32;100.00
80149;BME280;69473;42.426;26.644;2024-03-02T01:11:10;98620.50;;;7.32;100.00
80149;BME280;69473;42.426;26.644;2024-03-02T01:13:35;98620.50;;;7.35;100.00
80149;BME280;69473;42.426;26.644;2024-03-02T01:16:01;98620.50;;;7.32;100.00
80149;BME280;69473;42.426;26.644;2024-03-02T01:18:28;98623.88;;;7.18;100.00
80149;BME280;69473;42.426;26.644;2024-03-02T01:20:54;98617.03;;;7.22;100.00
80149;BME280;69473;42.426;26.644;2024-03-02T01:23:23;98607.59;;;7.21;100.00
80149;BME280;69473;42.426;26.644;2024-03-02T01:25:50;98599.03;;;7.33;100.00
80149;BME280;69473;42.426;26.644;2024-03-02T01:28:16;98587.88;;;7.34;100.00
80149;BME280;69473;42.426;26.644;2024-03-02T01:30:42;98598.19;;;7.37;99.21
80149;BME280;69473;42.426;26.644;2024-03-02T01:33:07;98617.91;;;7.32;99.52
80149;BME280;69473;42.426;26.644;2024-03-02T01:35:33;98622.22;;;7.27;100.00
80149;BME280;69473;42.426;26.644;2024-03-02T01:38:01;98623.09;;;7.30;100.00
80149;BME280;69473;42.426;26.644;2024-03-02T01:40:27;98608.50;;;7.34;100.00
80149;BME280;69473;42.426;26.644;2024-03-02T01:42:54;98609.34;;;7.37;99.40
80149;BME280;69473;42.426;26.644;2024-03-02T01:45:20;98605.03;;;7.32;99.98
80149;BME280;69473;42.426;26.644;2024-03-02T01:47:46;98605.03;;;7.32;100.00
80149;BME280;69473;42.426;26.644;2024-03-02T01:50:12;98610.22;;;7.38;99.78
80149;BME280;69473;42.426;26.644;2024-03-02T01:52:39;98601.63;;;7.33;100.00
80149;BME280;69473;42.426;26.644;2024-03-02T01:55:05;98593.91;;;7.36;100.00
80149;BME280;69473;42.426;26.644;2024-03-02T01:57:33;98598.22;;;7.43;99.32
80149;BME280;69473;42.426;26.644;2024-03-02T02:00:00;98596.47;;;7.36;99.66
80149;BME280;69473;42.426;26.644;2024-03-02T02:02:26;98605.06;;;7.35;100.00
80149;BME280;69473;42.426;26.644;2024-03-02T02:04:51;98595.59;;;7.34;99.89
80149;BME280;69473;42.426;26.644;2024-03-02T02:07:17;98599.88;;;7.29;100.00
80149;BME280;69473;42.426;26.644;2024-03-02T02:09:42;98599.88;;;7.32;100.00
80149;BME280;69473;42.426;26.644;2024-03-02T02:12:09;98603.28;;;7.22;100.00
80149;BME280;69473;42.426;26.644;2024-03-02T02:14:36;98606.72;;;7.21;100.00
80149;BME280;69473;42.426;26.644;2024-03-02T02:17:02;98616.16;;;7.22;100.00
80149;BME280;69473;42.426;26.644;2024-03-02T02:19:28;98620.47;;;7.26;100.00
80149;BME280;69473;42.426;26.644;2024-03-02T02:21:54;98622.16;;;7.14;100.00
80149;BME280;69473;42.426;26.644;2024-03-02T02:24:20;98617.03;;;7.21;100.00
80149;BME280;69473;42.426;26.644;2024-03-02T02:26:45;98625.63;;;7.23;100.00
80149;BME280;69473;42.426;26.644;2024-03-02T02:29:11;98609.31;;;7.24;100.00
80149;BME280;69473;42.426;26.644;2024-03-02T02:31:40;98615.31;;;7.26;100.00
80149;BME280;69473;42.426;26.644;2024-03-02T02:34:07;98611.91;;;7.27;100.00
80149;BME280;69473;42.426;26.644;2024-03-02T02:36:37;98623.88;;;7.18;100.00
80149;BME280;69473;42.426;26.644;2024-03-02T02:39:05;98612.72;;;7.16;100.00
80149;BME280;69473;42.426;26.644;2024-03-02T02:41:32;98611.00;;;7.17;100.00
80149;BME280;69473;42.426;26.644;2024-03-02T02:43:58;98606.69;;;7.13;100.00
80149;BME280;69473;42.426;26.644;2024-03-02T02:46:24;98606.69;;;7.14;100.00
80149;BME280;69473;42.426;26.644;2024-03-02T02:48:49;98620.44;;;7.10;100.00
80149;BME280;69473;42.426;26.644;2024-03-02T02:51:16;98621.28;;;7.08;100.00
80149;BME280;69473;42.426;26.644;2024-03-02T02:53:42;98616.13;;;7.11;100.00
80149;BME280;69473;42.426;26.644;2024-03-02T02:56:08;98630.69;;;7.04;100.00
80149;BME280;69473;42.426;26.644;2024-03-02T02:58:34;98635.84;;;7.01;100.00
80149;BME280;69473;42.426;26.644;2024-03-02T03:01:00;98632.47;;;7.17;100.00
80149;BME280;69473;42.426;26.644;2024-03-02T03:03:25;98629.00;;;7.12;100.00
80149;BME280;69473;42.426;26.644;2024-03-02T03:05:51;98630.75;;;7.23;100.00
80149;BME280;69473;42.426;26.644;2024-03-02T03:08:16;98636.78;;;7.17;100.00
80149;BME280;69473;42.426;26.644;2024-03-02T03:10:42;98639.41;;;7.31;100.00
80149;BME280;69473;42.426;26.644;2024-03-02T03:13:08;98623.84;;;7.12;100.00
80149;BME280;69473;42.426;26.644;2024-03-02T03:15:37;98626.44;;;7.15;100.00
80149;BME280;69473;42.426;26.644;2024-03-02T03:18:04;98620.47;;;7.16;100.00
80149;BME280;69473;42.426;26.644;2024-03-02T03:20:30;98622.19;;;7.21;100.00
80149;BME280;69473;42.426;26.644;2024-03-02T03:22:56;98623.91;;;7.25;100.00
80149;BME280;69473;42.426;26.644;2024-03-02T03:25:22;98623.94;;;7.28;100.00
80149;BME280;69473;42.426;26.644;2024-03-02T03:27:47;98613.59;;;7.22;100.00
80149;BME280;69473;42.426;26.644;2024-03-02T03:30:13;98610.16;;;7.16;100.00
80149;BME280;69473;42.426;26.644;2024-03-02T03:32:39;98610.16;;;7.20;100.00
80149;BME280;69473;42.426;26.644;2024-03-02T03:35:05;98611.91;;;7.24;100.00
80149;BME280;69473;42.426;26.644;2024-03-02T03:37:31;98605.00;;;7.23;100.00
80149;BME280;69473;42.426;26.644;2024-03-02T03:40:05;98612.72;;;7.23;100.00
80149;BME280;69473;42.426;26.644;2024-03-02T03:42:37;98611.91;;;7.30;100.00
80149;BME280;69473;42.426;26.644;2024-03-02T03:45:03;98610.16;;;7.26;100.00
80149;BME280;69473;42.426;26.644;2024-03-02T03:47:31;98617.88;;;7.23;100.00
80149;BME280;69473;42.426;26.644;2024-03-02T03:49:57;98620.50;;;7.29;100.00
80149;BME280;69473;42.426;26.644;2024-03-02T03:52:23;98611.88;;;7.21;100.00
80149;BME280;69473;42.426;26.644;2024-03-02T03:54:49;98616.16;;;7.18;100.00
80149;BME280;69473;42.426;26.644;2024-03-02T03:57:14;98611.91;;;7.24;100.00
80149;BME280;69473;42.426;26.644;2024-03-02T03:59:40;98602.47;;;7.30;100.00
80149;BME280;69473;42.426;26.644;2024-03-02T04:02:06;98602.44;;;7.26;100.00
80149;BME280;69473;42.426;26.644;2024-03-02T04:04:32;98593.00;;;7.28;100.00
80149;BME280;69473;42.426;26.644;2024-03-02T04:06:58;98591.28;;;7.27;100.00
80149;BME280;69473;42.426;26.644;2024-03-02T04:09:24;98593.88;;;7.27;100.00
80149;BME280;69473;42.426;26.644;2024-03-02T04:11:50;98595.63;;;7.35;100.00
80149;BME280;69473;42.426;26.644;2024-03-02T04:14:17;98593.06;;;7.40;100.00
80149;BME280;69473;42.426;26.644;2024-03-02T04:16:42;98588.72;;;7.34;100.00
80149;BME280;69473;42.426;26.644;2024-03-02T04:19:08;98590.47;;;7.35;100.00
80149;BME280;69473;42.426;26.644;2024-03-02T04:21:34;98589.56;;;7.32;100.00
80149;BME280;69473;42.426;26.644;2024-03-02T04:23:59;98582.72;;;7.34;100.00
80149;BME280;69473;42.426;26.644;2024-03-02T04:26:26;98579.25;;;7.26;100.00
80149;BME280;69473;42.426;26.644;2024-03-02T04:28:53;98584.38;;;7.23;100.00
80149;BME280;69473;42.426;26.644;2024-03-02T04:31:19;98581.00;;;7.33;100.00
80149;BME280;69473;42.426;26.644;2024-03-02T04:33:45;98586.13;;;7.27;100.00
80149;BME280;69473;42.426;26.644;2024-03-02T04:36:10;98586.13;;;7.21;100.00
80149;BME280;69473;42.426;26.644;2024-03-02T04:38:36;98587.81;;;7.22;100.00
80149;BME280;69473;42.426;26.644;2024-03-02T04:41:03;98586.09;;;7.17;100.00
80149;BME280;69473;42.426;26.644;2024-03-02T04:43:29;98583.50;;;7.16;100.00
80149;BME280;69473;42.426;26.644;2024-03-02T04:45:54;98587.78;;;7.15;100.00
80149;BME280;69473;42.426;26.644;2024-03-02T04:48:20;98575.78;;;7.17;100.00
80149;BME280;69473;42.426;26.644;2024-03-02T04:50:47;98575.81;;;7.21;100.00
80149;BME280;69473;42.426;26.644;2024-03-02T04:53:12;98594.69;;;7.26;100.00
80149;BME280;69473;42.426;26.644;2024-03-02T04:55:39;98592.13;;;7.23;100.00
80149;BME280;69473;42.426;26.644;2024-03-02T04:58:04;98592.97;;;7.22;100.00
80149;BME280;69473;42.426;26.644;2024-03-02T05:00:31;98595.56;;;7.17;100.00
80149;BME280;69473;42.426;26.644;2024-03-02T05:02:56;98610.16;;;7.16;100.00
80149;BME280;69473;42.426;26.644;2024-03-02T05:05:22;98603.28;;;7.22;100.00
80149;BME280;69473;42.426;26.644;2024-03-02T05:07:47;98606.75;;;7.24;100.00
80149;BME280;69473;42.426;26.644;2024-03-02T05:10:13;98615.34;;;7.29;100.00
80149;BME280;69473;42.426;26.644;2024-03-02T05:12:40;98611.94;;;7.33;100.00
80149;BME280;69473;42.426;26.644;2024-03-02T05:15:12;98618.81;;;7.34;100.00
80149;BME280;69473;42.426;26.644;2024-03-02T05:17:40;98613.63;;;7.31;100.00
80149;BME280;69473;42.426;26.644;2024-03-02T05:20:07;98617.09;;;7.33;100.00
80149;BME280;69473;42.426;26.644;2024-03-02T05:22:36;98610.19;;;7.29;100.00
80149;BME280;69473;42.426;26.644;2024-03-02T05:25:03;98605.00;;;7.20;100.00
80149;BME280;69473;42.426;26.644;2024-03-02T05:27:29;98610.16;;;7.23;100.00
80149;BME280;69473;42.426;26.644;2024-03-02T05:29:55;98615.34;;;7.29;100.00
80149;BME280;69473;42.426;26.644;2024-03-02T05:32:21;98618.78;;;7.31;100.00
80149;BME280;69473;42.426;26.644;2024-03-02T05:34:46;98622.22;;;7.30;100.00
80149;BME280;69473;42.426;26.644;2024-03-02T05:37:12;98618.75;;;7.25;100.00
80149;BME280;69473;42.426;26.644;2024-03-02T05:39:37;98611.88;;;7.21;100.00
80149;BME280;69473;42.426;26.644;2024-03-02T05:42:03;98607.63;;;7.33;100.00
80149;BME280;69473;42.426;26.644;2024-03-02T05:44:29;98599.94;;;7.44;100.00
80149;BME280;69473;42.426;26.644;2024-03-02T05:46:55;98599.94;;;7.50;100.00
80149;BME280;69473;42.426;26.644;2024-03-02T05:49:21;98596.50;;;7.50;100.00
80149;BME280;69473;42.426;26.644;2024-03-02T05:51:47;98586.22;;;7.48;100.00
80149;BME280;69473;42.426;26.644;2024-03-02T05:54:13;98584.50;;;7.53;100.00
80149;BME280;69473;42.426;26.644;2024-03-02T05:56:38;98586.22;;;7.54;99.81
80149;BME280;69473;42.426;26.644;2024-03-02T05:59:04;98589.63;;;7.44;100.00
80149;BME280;69473;42.426;26.644;2024-03-02T06:01:42;98605.09;;;7.44;100.00
80149;BME280;69473;42.426;26.644;2024-03-02T06:04:08;98610.25;;;7.47;100.00
80149;BME280;69473;42.426;26.644;2024-03-02T06:06:38;98599.97;;;7.56;99.90
80149;BME280;69473;42.426;26.644;2024-03-02T06:09:05;98608.56;;;7.49;100.00
80149;BME280;69473;42.426;26.644;2024-03-02T06:11:36;98603.41;;;7.55;99.60
80149;BME280;69473;42.426;26.644;2024-03-02T06:14:06;98594.00;;;7.68;98.08
80149;BME280;69473;42.426;26.644;2024-03-02T06:16:32;98616.34;;;7.69;97.40
80149;BME280;69473;42.426;26.644;2024-03-02T06:18:58;98610.31;;;7.66;97.39
80149;BME280;69473;42.426;26.644;2024-03-02T06:21:24;98618.91;;;7.64;98.49
80149;BME280;69473;42.426;26.644;2024-03-02T06:23:50;98624.94;;;7.68;98.18
80149;BME280;69473;42.426;26.644;2024-03-02T06:26:16;98610.34;;;7.73;98.17
80149;BME280;69473;42.426;26.644;2024-03-02T06:28:41;98606.94;;;7.79;97.50
80149;BME280;69473;42.426;26.644;2024-03-02T06:31:08;98608.66;;;7.86;95.84
80149;BME280;69473;42.426;26.644;2024-03-02T06:33:33;98611.22;;;7.91;95.85
80149;BME280;69473;42.426;26.644;2024-03-02T06:35:59;98616.41;;;7.92;95.82
80149;BME280;69473;42.426;26.644;2024-03-02T06:38:24;98622.41;;;7.94;96.52
80149;BME280;69473;42.426;26.644;2024-03-02T06:40:51;98618.97;;;7.89;96.82
80149;BME280;69473;42.426;26.644;2024-03-02T06:43:16;98622.41;;;7.94;96.44
80149;BME280;69473;42.426;26.644;2024-03-02T06:45:42;98620.69;;;7.96;96.31
80149;BME280;69473;42.426;26.644;2024-03-02T06:48:08;98615.53;;;7.99;95.37
80149;BME280;69473;42.426;26.644;2024-03-02T06:50:33;98596.63;;;8.03;95.62
80149;BME280;69473;42.426;26.644;2024-03-02T06:52:59;98606.94;;;8.00;95.37
80149;BME280;69473;42.426;26.644;2024-03-02T06:55:24;98605.22;;;7.99;95.39
80149;BME280;69473;42.426;26.644;2024-03-02T06:57:51;98597.50;;;8.02;96.13
80149;BME280;69473;42.426;26.644;2024-03-02T07:00:17;98611.25;;;8.03;94.36
80149;BME280;69473;42.426;26.644;2024-03-02T07:02:44;98619.00;;;8.07;94.19
80149;BME280;69473;42.426;26.644;2024-03-02T07:05:10;98619.00;;;8.04;93.75
80149;BME280;69473;42.426;26.644;2024-03-02T07:07:37;98613.84;;;8.14;93.94
80149;BME280;69473;42.426;26.644;2024-03-02T07:10:04;98603.53;;;8.17;92.55
80149;BME280;69473;42.426;26.644;2024-03-02T07:12:29;98594.94;;;8.24;92.42
80149;BME280;69473;42.426;26.644;2024-03-02T07:14:56;98584.59;;;8.21;93.37
80149;BME280;69473;42.426;26.644;2024-03-02T07:17:28;98585.47;;;8.35;91.56
80149;BME280;69473;42.426;26.644;2024-03-02T07:19:53;98600.13;;;8.39;91.86
80149;BME280;69473;42.426;26.644;2024-03-02T07:22:19;98598.38;;;8.29;92.46
80149;BME280;69473;42.426;26.644;2024-03-02T07:24:45;98603.53;;;8.29;92.49
80149;BME280;69473;42.426;26.644;2024-03-02T07:27:13;98600.94;;;8.33;91.01
80149;BME280;69473;42.426;26.644;2024-03-02T07:29:39;98609.56;;;8.20;92.18
80149;BME280;69473;42.426;26.644;2024-03-02T07:32:07;98600.09;;;8.24;92.81
80149;BME280;69473;42.426;26.644;2024-03-02T07:34:33;98579.47;;;8.45;91.21
80149;BME280;69473;42.426;26.644;2024-03-02T07:36:59;98595.81;;;8.47;91.21
80149;BME280;69473;42.426;26.644;2024-03-02T07:39:25;98607.84;;;8.33;92.11
80149;BME280;69473;42.426;26.644;2024-03-02T07:41:51;98604.38;;;8.22;92.18
80149;BME280;69473;42.426;26.644;2024-03-02T07:44:16;98600.94;;;8.37;93.07
80149;BME280;69473;42.426;26.644;2024-03-02T07:46:45;98608.75;;;8.41;91.84
80149;BME280;69473;42.426;26.644;2024-03-02T07:49:18;98619.91;;;8.45;90.89
80149;BME280;69473;42.426;26.644;2024-03-02T07:51:44;98608.72;;;8.47;90.72
80149;BME280;69473;42.426;26.644;2024-03-02T07:54:10;98597.50;;;8.71;90.37
80149;BME280;69473;42.426;26.644;2024-03-02T07:56:35;98611.25;;;8.89;88.88
80149;BME280;69473;42.426;26.644;2024-03-02T07:59:02;98613.00;;;8.73;89.62
80149;BME280;69473;42.426;26.644;2024-03-02T08:01:28;98625.94;;;8.54;92.03
80149;BME280;69473;42.426;26.644;2024-03-02T08:03:59;98622.47;;;8.43;92.01
80149;BME280;69473;42.426;26.644;2024-03-02T08:06:29;98624.22;;;8.41;92.39
80149;BME280;69473;42.426;26.644;2024-03-02T08:09:00;98631.09;;;8.42;91.32
80149;BME280;69473;42.426;26.644;2024-03-02T08:11:26;98622.47;;;8.49;92.13
80149;BME280;69473;42.426;26.644;2024-03-02T08:13:56;98601.81;;;8.71;90.70
80149;BME280;69473;42.426;26.644;2024-03-02T08:16:23;98623.31;;;8.74;90.47
80149;BME280;69473;42.426;26.644;2024-03-02T08:18:49;98625.94;;;8.51;90.64
80149;BME280;69473;42.426;26.644;2024-03-02T08:21:15;98631.09;;;8.48;90.48
80149;BME280;69473;42.426;26.644;2024-03-02T08:23:42;98630.25;;;8.66;90.78
80149;BME280;69473;42.426;26.644;2024-03-02T08:26:11;98621.63;;;8.67;91.57
80149;BME280;69473;42.426;26.644;2024-03-02T08:28:37;98634.56;;;8.47;91.43
80149;BME280;69473;42.426;26.644;2024-03-02T08:31:04;98630.25;;;8.45;92.36
80149;BME280;69473;42.426;26.644;2024-03-02T08:33:29;98625.94;;;8.70;90.84
80149;BME280;69473;42.426;26.644;2024-03-02T08:35:56;98630.22;;;8.55;91.74
80149;BME280;69473;42.426;26.644;2024-03-02T08:38:22;98627.66;;;8.49;92.90
80149;BME280;69473;42.426;26.644;2024-03-02T08:40:49;98630.22;;;8.46;93.23
80149;BME280;69473;42.426;26.644;2024-03-02T08:43:15;98629.34;;;8.56;92.44
80149;BME280;69473;42.426;26.644;2024-03-02T08:45:43;98631.06;;;8.65;91.03
80149;BME280;69473;42.426;26.644;2024-03-02T08:48:08;98629.31;;;8.96;88.82
80149;BME280;69473;42.426;26.644;2024-03-02T08:50:35;98621.53;;;9.10;86.78
80149;BME280;69473;42.426;26.644;2024-03-02T08:53:00;98607.63;;;9.37;86.88
80149;BME280;69473;42.426;26.644;2024-03-02T08:55:26;98626.53;;;9.53;85.96
80149;BME280;69473;42.426;26.644;2024-03-02T08:57:52;98615.38;;;9.42;86.47
80149;BME280;69473;42.426;26.644;2024-03-02T09:00:18;98627.38;;;9.60;85.29
80149;BME280;69473;42.426;26.644;2024-03-02T09:02:44;98622.28;;;9.47;85.37
80149;BME280;69473;42.426;26.644;2024-03-02T09:05:10;98611.88;;;9.57;85.83
80149;BME280;69473;42.426;26.644;2024-03-02T09:07:36;98610.84;;;9.85;84.71
80149;BME280;69473;42.426;26.644;2024-03-02T09:10:07;98611.75;;;9.81;84.11
80149;BME280;69473;42.426;26.644;2024-03-02T09:12:33;98613.44;;;9.88;84.10
80149;BME280;69473;42.426;26.644;2024-03-02T09:15:03;98618.66;;;9.79;83.84
80149;BME280;69473;42.426;26.644;2024-03-02T09:17:29;98613.50;;;9.76;84.56
80149;BME280;69473;42.426;26.644;2024-03-02T09:19:55;98618.69;;;9.73;84.46
80149;BME280;69473;42.426;26.644;2024-03-02T09:22:22;98623.81;;;9.82;84.62
80149;BME280;69473;42.426;26.644;2024-03-02T09:24:48;98630.69;;;9.86;83.69
80149;BME280;69473;42.426;26.644;2024-03-02T09:27:14;98618.50;;;10.04;82.38
80149;BME280;69473;42.426;26.644;2024-03-02T09:29:40;98614.81;;;10.42;81.15
80149;BME280;69473;42.426;26.644;2024-03-02T09:32:06;98615.50;;;10.59;79.47
80149;BME280;69473;42.426;26.644;2024-03-02T09:34:32;98618.03;;;10.65;79.55
80149;BME280;69473;42.426;26.644;2024-03-02T09:36:58;98618.28;;;10.37;80.90
80149;BME280;69473;42.426;26.644;2024-03-02T09:39:24;98639.13;;;10.16;81.57
80149;BME280;69473;42.426;26.644;2024-03-02T09:41:51;98637.38;;;10.18;81.80
80149;BME280;69473;42.426;26.644;2024-03-02T09:44:17;98630.44;;;10.23;82.11
80149;BME280;69473;42.426;26.644;2024-03-02T09:46:43;98629.25;;;10.69;79.78
80149;BME280;69473;42.426;26.644;2024-03-02T09:49:12;98625.44;;;11.06;78.39
80149;BME280;69473;42.426;26.644;2024-03-02T09:51:38;98630.66;;;10.99;78.70
80149;BME280;69473;42.426;26.644;2024-03-02T09:54:07;98626.16;;;11.19;77.20
80149;BME280;69473;42.426;26.644;2024-03-02T09:56:33;98631.59;;;10.95;78.17
80149;BME280;69473;42.426;26.644;2024-03-02T09:58:59;98632.66;;;10.75;78.20
80149;BME280;69473;42.426;26.644;2024-03-02T10:01:25;98624.88;;;10.75;79.29
80149;BME280;69473;42.426;26.644;2024-03-02T10:03:51;98627.94;;;11.11;77.57
80149;BME280;69473;42.426;26.644;2024-03-02T10:06:25;98610.59;;;11.19;75.99
80149;BME280;69473;42.426;26.644;2024-03-02T10:08:52;98615.00;;;11.11;75.51
80149;BME280;69473;42.426;26.644;2024-03-02T10:11:33;98614.88;;;11.20;76.55
80149;BME280;69473;42.426;26.644;2024-03-02T10:14:12;98614.06;;;11.15;75.56
80149;BME280;69473;42.426;26.644;2024-03-02T10:16:40;98611.75;;;10.89;77.26
80149;BME280;69473;42.426;26.644;2024-03-02T10:21:40;98613.66;;;10.73;78.16
80149;BME280;69473;42.426;26.644;2024-03-02T10:24:07;98605.75;;;10.85;77.84
80149;BME280;69473;42.426;26.644;2024-03-02T10:26:32;98610.59;;;11.19;76.76
80149;BME280;69473;42.426;26.644;2024-03-02T10:28:58;98598.63;;;11.09;76.16
80149;BME280;69473;42.426;26.644;2024-03-02T10:31:25;98597.00;;;10.96;76.93
80149;BME280;69473;42.426;26.644;2024-03-02T10:33:57;98587.63;;;10.84;76.76
80149;BME280;69473;42.426;26.644;2024-03-02T10:36:23;98586.69;;;10.90;77.01
80149;BME280;69473;42.426;26.644;2024-03-02T10:38:52;98583.06;;;11.07;76.30
80149;BME280;69473;42.426;26.644;2024-03-02T10:41:23;98574.38;;;11.10;76.91
80149;BME280;69473;42.426;26.644;2024-03-02T10:43:51;98563.69;;;11.38;75.27
80149;BME280;69473;42.426;26.644;2024-03-02T10:46:20;98563.72;;;11.35;75.71
80149;BME280;69473;42.426;26.644;2024-03-02T10:48:46;98567.00;;;11.46;73.72
80149;BME280;69473;42.426;26.644;2024-03-02T10:51:12;98565.09;;;11.60;73.43
80149;BME280;69473;42.426;26.644;2024-03-02T10:53:38;98566.50;;;11.86;73.20
80149;BME280;69473;42.426;26.644;2024-03-02T10:56:07;98556.91;;;11.89;72.48
80149;BME280;69473;42.426;26.644;2024-03-02T10:58:36;98555.22;;;11.88;72.45
80149;BME280;69473;42.426;26.644;2024-03-02T11:01:03;98564.97;;;11.69;72.06
80149;BME280;69473;42.426;26.644;2024-03-02T11:03:36;98559.84;;;11.66;72.07
80149;BME280;69473;42.426;26.644;2024-03-02T11:06:08;98549.41;;;11.69;72.72
80149;BME280;69473;42.426;26.644;2024-03-02T11:08:39;98551.38;;;11.53;73.78
80149;BME280;69473;42.426;26.644;2024-03-02T11:11:15;98545.38;;;11.48;73.65
80149;BME280;69473;42.426;26.644;2024-03-02T11:13:49;98539.78;;;11.76;73.02
80149;BME280;69473;42.426;26.644;2024-03-02T11:18:48;98536.19;;;11.86;73.09
80149;BME280;69473;42.426;26.644;2024-03-02T11:21:16;98540.25;;;12.04;72.25
80149;BME280;69473;42.426;26.644;2024-03-02T11:23:42;98539.69;;;11.82;72.05
80149;BME280;69473;42.426;26.644;2024-03-02T11:26:21;98540.16;;;12.10;71.46
80149;BME280;69473;42.426;26.644;2024-03-02T11:28:48;98534.22;;;12.53;70.02
80149;BME280;69473;42.426;26.644;2024-03-02T11:31:13;98544.19;;;12.78;69.18
80149;BME280;69473;42.426;26.644;2024-03-02T11:33:39;98544.69;;;12.50;67.39
80149;BME280;69473;42.426;26.644;2024-03-02T11:36:08;98538.16;;;12.28;69.64
80149;BME280;69473;42.426;26.644;2024-03-02T11:38:35;98540.28;;;12.52;69.51
80149;BME280;69473;42.426;26.644;2024-03-02T11:41:05;98536.38;;;12.30;68.28
80149;BME280;69473;42.426;26.644;2024-03-02T11:43:32;98538.88;;;12.84;68.82
80149;BME280;69473;42.426;26.644;2024-03-02T11:45:59;98546.72;;;12.81;69.37
80149;BME280;69473;42.426;26.644;2024-03-02T11:48:26;98534.41;;;12.44;70.11
80149;BME280;69473;42.426;26.644;2024-03-02T11:50:52;98536.84;;;12.52;68.92
80149;BME280;69473;42.426;26.644;2024-03-02T11:53:20;98529.25;;;12.41;69.95
80149;BME280;69473;42.426;26.644;2024-03-02T11:55:46;98532.50;;;12.52;68.47
80149;BME280;69473;42.426;26.644;2024-03-02T11:58:14;98518.44;;;12.16;69.21
80149;BME280;69473;42.426;26.644;2024-03-02T12:00:40;98522.16;;;12.49;68.81
80149;BME280;69473;42.426;26.644;2024-03-02T12:03:07;98510.47;;;12.73;68.67
80149;BME280;69473;42.426;26.644;2024-03-02T12:05:34;98512.56;;;12.99;68.06
80149;BME280;69473;42.426;26.644;2024-03-02T12:08:04;98512.09;;;13.21;66.18
80149;BME280;69473;42.426;26.644;2024-03-02T12:10:31;98505.81;;;12.89;67.43
80149;BME280;69473;42.426;26.644;2024-03-02T12:13:01;98506.16;;;12.70;67.99
80149;BME280;69473;42.426;26.644;2024-03-02T12:15:28;98503.13;;;12.93;66.68
80149;BME280;69473;42.426;26.644;2024-03-02T12:17:55;98506.09;;;13.18;65.42
80149;BME280;69473;42.426;26.644;2024-03-02T12:20:21;98508.75;;;13.15;64.63
80149;BME280;69473;42.426;26.644;2024-03-02T12:22:52;98505.94;;;12.83;66.86
80149;BME280;69473;42.426;26.644;2024-03-02T12:25:19;98506.13;;;12.74;67.25
80149;BME280;69473;42.426;26.644;2024-03-02T12:27:49;98508.88;;;12.64;66.99
80149;BME280;69473;42.426;26.644;2024-03-02T12:30:18;98501.72;;;12.77;67.26
80149;BME280;69473;42.426;26.644;2024-03-02T12:32:44;98500.44;;;12.53;68.20
80149;BME280;69473;42.426;26.644;2024-03-02T12:35:11;98497.84;;;12.53;67.35
80149;BME280;69473;42.426;26.644;2024-03-02T12:37:48;98511.31;;;12.74;66.99
80149;BME280;69473;42.426;26.644;2024-03-02T12:40:16;98504.28;;;12.79;67.51
80149;BME280;69473;42.426;26.644;2024-03-02T12:42:45;98494.81;;;12.30;68.62
80149;BME280;69473;42.426;26.644;2024-03-02T12:45:12;98498.13;;;12.84;68.55
80149;BME280;69473;42.426;26.644;2024-03-02T12:47:40;98498.91;;;12.88;66.61
80149;BME280;69473;42.426;26.644;2024-03-02T12:50:06;98494.53;;;12.45;67.93
80149;BME280;69473;42.426;26.644;2024-03-02T12:52:33;98501.84;;;12.71;67.88
80149;BME280;69473;42.426;26.644;2024-03-02T12:55:00;98494.06;;;12.69;66.74
80149;BME280;69473;42.426;26.644;2024-03-02T12:57:29;98495.72;;;12.74;67.26
80149;BME280;69473;42.426;26.644;2024-03-02T13:00:03;98496.25;;;12.89;66.59